createdAt,value
2018-12-10T00:01:19.260Z,1.90
2018-12-10T00:03:51.059Z,1.95
2018-12-10T00:06:23.025Z,1.90
2018-12-10T00:08:53.144Z,1.32
2018-12-10T00:11:23.164Z,1.92
2018-12-10T00:13:53.130Z,1.87
2018-12-10T00:16:24.213Z,2.52
2018-12-10T00:18:54.121Z,1.45
2018-12-10T00:21:24.094Z,1.80
2018-12-10T00:23:54.049Z,1.55
2018-12-10T00:26:24.185Z,1.98
2018-12-10T00:28:54.086Z,1.85
2018-12-10T00:31:24.106Z,1.62
2018-12-10T00:33:54.013Z,1.95
2018-12-10T00:36:24.030Z,1.55
2018-12-10T00:38:53.945Z,1.80
2018-12-10T00:41:23.878Z,1.95
2018-12-10T00:43:53.994Z,1.82
2018-12-10T00:46:24.005Z,1.35
2018-12-10T00:48:53.947Z,1.90
2018-12-10T00:51:23.921Z,1.95
2018-12-10T00:53:53.951Z,1.40
2018-12-10T00:56:23.971Z,1.62
2018-12-10T00:58:53.978Z,1.60
2018-12-10T01:01:24.003Z,1.77
2018-12-10T01:03:53.919Z,1.65
2018-12-10T01:06:23.914Z,1.60
2018-12-10T01:08:53.914Z,1.32
2018-12-10T01:11:23.966Z,2.45
2018-12-10T01:13:53.870Z,2.10
2018-12-10T01:16:23.900Z,1.90
2018-12-10T01:18:53.803Z,2.02
2018-12-10T01:21:23.783Z,2.30
2018-12-10T01:23:53.707Z,1.92
2018-12-10T01:26:23.680Z,1.80
2018-12-10T01:28:53.581Z,1.32
2018-12-10T01:31:23.485Z,1.35
2018-12-10T01:33:53.343Z,1.67
2018-12-10T01:36:23.348Z,1.95
2018-12-10T01:38:53.415Z,1.42
2018-12-10T01:41:23.657Z,2.25
2018-12-10T01:43:53.482Z,1.90
2018-12-10T01:46:23.480Z,2.08
2018-12-10T01:48:53.573Z,1.60
2018-12-10T01:51:23.511Z,1.70
2018-12-10T01:53:53.497Z,1.55
2018-12-10T01:56:23.476Z,1.60
2018-12-10T01:58:53.391Z,1.45
2018-12-10T02:01:23.336Z,1.62
2018-12-10T02:03:53.275Z,1.60
2018-12-10T02:06:23.604Z,2.08
2018-12-10T02:08:53.565Z,1.52
2018-12-10T02:11:38.075Z,1.60
2018-12-10T02:14:08.292Z,1.98
2018-12-10T02:16:38.320Z,1.60
2018-12-10T02:19:08.334Z,1.90
2018-12-10T02:21:38.358Z,2.33
2018-12-10T02:24:08.355Z,2.02
2018-12-10T02:26:38.382Z,1.52
2018-12-10T02:29:14.309Z,1.85
2018-12-10T02:31:44.864Z,1.37
2018-12-10T02:34:14.792Z,1.10
2018-12-10T02:36:45.819Z,1.82
2018-12-10T02:39:15.840Z,1.20
2018-12-10T02:41:45.707Z,1.55
2018-12-10T02:44:15.759Z,1.95
2018-12-10T02:46:52.648Z,0.60
2018-12-10T02:49:22.468Z,1.45
2018-12-10T02:51:52.409Z,2.15
2018-12-10T02:54:22.379Z,1.42
2018-12-10T02:56:52.203Z,1.72
2018-12-10T02:59:22.150Z,1.35
2018-12-10T03:01:52.133Z,1.45
2018-12-10T03:04:22.130Z,1.70
2018-12-10T03:06:52.379Z,1.10
2018-12-10T03:09:22.296Z,1.32
2018-12-10T03:11:52.233Z,1.80
2018-12-10T03:14:22.304Z,1.20
2018-12-10T03:16:52.113Z,1.57
2018-12-10T03:19:22.134Z,1.00
2018-12-10T03:21:52.157Z,1.00
2018-12-10T03:24:22.059Z,1.90
2018-12-10T03:26:52.044Z,1.12
2018-12-10T03:29:22.035Z,1.20
2018-12-10T03:31:52.037Z,1.30
2018-12-10T03:34:22.029Z,1.17
2018-12-10T03:36:52.048Z,0.72
2018-12-10T03:39:22.167Z,1.20
2018-12-10T03:41:52.180Z,1.27
2018-12-10T03:44:22.081Z,1.30
2018-12-10T03:46:52.015Z,1.57
2018-12-10T03:49:22.106Z,1.47
2018-12-10T03:51:52.101Z,1.90
2018-12-10T03:54:22.054Z,1.60
2018-12-10T03:56:51.929Z,1.20
2018-12-10T03:59:22.083Z,1.37
2018-12-10T04:01:52.089Z,1.77
2018-12-10T04:04:22.219Z,1.52
2018-12-10T04:06:52.151Z,2.00
2018-12-10T04:09:22.261Z,1.40
2018-12-10T04:11:52.252Z,1.40
2018-12-10T04:14:22.183Z,1.98
2018-12-10T04:16:52.458Z,1.90
2018-12-10T04:19:22.355Z,1.75
2018-12-10T04:21:52.350Z,1.80
2018-12-10T04:24:22.454Z,1.42
2018-12-10T04:26:52.805Z,1.60
2018-12-10T04:29:22.960Z,1.60
2018-12-10T04:31:52.927Z,1.75
2018-12-10T04:34:23.026Z,1.50
2018-12-10T04:36:52.898Z,1.22
2018-12-10T04:39:22.875Z,1.45
2018-12-10T04:41:52.688Z,1.87
2018-12-10T04:44:22.633Z,1.95
2018-12-10T04:46:52.985Z,2.35
2018-12-10T04:49:22.849Z,1.60
2018-12-10T04:51:52.739Z,2.02
2018-12-10T04:54:22.755Z,1.82
2018-12-10T04:56:52.776Z,2.08
2018-12-10T04:59:22.887Z,2.08
2018-12-10T05:01:52.827Z,1.50
2018-12-10T05:04:22.756Z,1.90
2018-12-10T05:06:52.967Z,1.77
2018-12-10T05:09:22.835Z,1.37
2018-12-10T05:11:52.796Z,1.95
2018-12-10T05:14:22.891Z,1.40
2018-12-10T05:16:52.909Z,2.60
2018-12-10T05:19:22.907Z,1.90
2018-12-10T05:21:52.827Z,1.65
2018-12-10T05:24:22.856Z,2.12
2018-12-10T05:26:52.863Z,2.00
2018-12-10T05:29:22.793Z,1.98
2018-12-10T05:31:52.782Z,1.07
2018-12-10T05:34:22.779Z,1.70
2018-12-10T05:36:53.740Z,1.67
2018-12-10T05:39:23.766Z,1.47
2018-12-10T05:41:53.660Z,1.47
2018-12-10T05:44:23.591Z,1.62
2018-12-10T05:46:53.617Z,1.70
2018-12-10T05:49:23.747Z,2.00
2018-12-10T05:51:53.736Z,1.72
2018-12-10T05:54:23.764Z,1.30
2018-12-10T05:56:53.680Z,1.52
2018-12-10T05:59:23.572Z,1.52
2018-12-10T06:01:53.616Z,2.10
2018-12-10T06:04:23.570Z,1.22
2018-12-10T06:06:53.537Z,1.90
2018-12-10T06:09:23.449Z,1.67
2018-12-10T06:11:53.371Z,1.50
2018-12-10T06:14:23.308Z,2.08
2018-12-10T06:16:53.402Z,1.72
2018-12-10T06:19:23.412Z,1.77
2018-12-10T06:21:53.423Z,2.27
2018-12-10T06:24:23.330Z,1.37
2018-12-10T06:26:53.342Z,1.15
2018-12-10T06:29:23.392Z,1.45
2018-12-10T06:31:53.385Z,2.55
2018-12-10T06:34:23.407Z,1.55
2018-12-10T06:36:53.415Z,1.65
2018-12-10T06:39:23.448Z,1.92
2018-12-10T06:41:53.560Z,1.70
2018-12-10T06:44:23.679Z,1.90
2018-12-10T06:46:54.096Z,1.42
2018-12-10T06:49:23.929Z,1.50
2018-12-10T06:51:53.852Z,1.92
2018-12-10T06:54:23.855Z,1.72
2018-12-10T06:56:53.851Z,1.75
2018-12-10T06:59:23.799Z,1.42
2018-12-10T07:01:53.997Z,1.47
2018-12-10T07:04:23.810Z,2.12
2018-12-10T07:06:53.814Z,1.52
2018-12-10T07:09:23.841Z,1.07
2018-12-10T07:11:53.827Z,2.02
2018-12-10T07:14:23.810Z,1.90
2018-12-10T07:16:54.984Z,2.02
2018-12-10T07:19:25.055Z,1.57
2018-12-10T07:21:54.979Z,2.12
2018-12-10T07:24:24.972Z,1.98
2018-12-10T07:26:54.879Z,1.80
2018-12-10T07:29:24.792Z,2.20
2018-12-10T07:31:54.680Z,1.45
2018-12-10T07:34:24.612Z,1.55
2018-12-10T07:36:54.742Z,2.17
2018-12-10T07:39:24.768Z,1.82
2018-12-10T07:41:54.827Z,1.55
2018-12-10T07:44:25.882Z,1.67
2018-12-10T07:46:56.072Z,2.27
2018-12-10T07:49:25.947Z,1.82
2018-12-10T07:51:55.750Z,1.70
2018-12-10T07:54:25.893Z,1.20
2018-12-10T07:56:55.991Z,1.45
2018-12-10T07:59:25.899Z,1.77
2018-12-10T08:01:55.952Z,1.62
2018-12-10T08:04:25.948Z,2.05
2018-12-10T08:06:56.078Z,1.67
2018-12-10T08:09:25.976Z,2.45
2018-12-10T08:11:56.016Z,4.85
2018-12-10T08:14:26.070Z,1.80
2018-12-10T08:16:56.015Z,1.77
2018-12-10T08:19:25.943Z,1.90
2018-12-10T08:21:56.028Z,1.60
2018-12-10T08:24:25.891Z,1.87
2018-12-10T08:26:56.003Z,1.60
2018-12-10T08:29:26.003Z,1.67
2018-12-10T08:31:56.041Z,1.15
2018-12-10T08:34:26.245Z,2.10
2018-12-10T08:36:56.192Z,1.70
2018-12-10T08:39:26.186Z,1.25
2018-12-10T08:41:56.348Z,1.70
2018-12-10T08:44:26.274Z,1.27
2018-12-10T08:46:57.335Z,1.30
2018-12-10T08:49:27.354Z,1.62
2018-12-10T08:51:58.123Z,1.55
2018-12-10T08:54:28.202Z,1.87
2018-12-10T08:56:58.323Z,1.22
2018-12-10T08:59:28.384Z,1.40
2018-12-10T09:01:58.459Z,1.17
2018-12-10T09:04:28.488Z,1.75
2018-12-10T09:06:58.531Z,1.98
2018-12-10T09:09:28.618Z,2.50
2018-12-10T09:11:58.590Z,1.10
2018-12-10T09:14:28.647Z,1.52
2018-12-10T09:16:58.660Z,1.25
2018-12-10T09:19:29.197Z,2.17
2018-12-10T09:21:59.323Z,1.62
2018-12-10T09:24:29.226Z,1.72
2018-12-10T09:29:43.418Z,1.90
2018-12-10T09:32:13.605Z,1.95
2018-12-10T09:34:43.721Z,2.33
2018-12-10T09:37:13.863Z,1.80
2018-12-10T09:39:43.924Z,1.90
2018-12-10T09:42:13.859Z,1.72
2018-12-10T09:44:43.959Z,1.55
2018-12-10T09:47:13.929Z,1.65
2018-12-10T09:49:43.931Z,1.60
2018-12-10T09:52:13.939Z,1.60
2018-12-10T09:54:44.881Z,1.72
2018-12-10T09:57:14.695Z,1.82
2018-12-10T09:59:44.814Z,1.60
2018-12-10T10:02:14.939Z,1.85
2018-12-10T10:04:45.024Z,1.22
2018-12-10T10:07:15.020Z,1.20
2018-12-10T10:09:48.150Z,1.20
2018-12-10T10:12:27.653Z,1.30
2018-12-10T10:14:57.707Z,1.37
2018-12-10T10:17:27.730Z,1.55
2018-12-10T10:20:00.017Z,1.60
2018-12-10T10:22:29.947Z,1.42
2018-12-10T10:24:59.922Z,1.50
2018-12-10T10:27:29.785Z,1.80
2018-12-10T10:29:59.851Z,1.60
2018-12-10T10:32:29.907Z,1.22
2018-12-10T10:34:59.711Z,1.80
2018-12-10T10:37:29.807Z,1.40
2018-12-10T10:39:59.817Z,1.85
2018-12-10T10:42:29.909Z,2.72
2018-12-10T10:44:59.864Z,3.98
2018-12-10T10:47:29.873Z,1.60
2018-12-10T10:49:59.969Z,1.30
2018-12-10T10:52:33.322Z,2.33
2018-12-10T10:55:01.819Z,1.30
2018-12-10T10:57:31.883Z,1.65
2018-12-10T11:00:01.904Z,1.80
2018-12-10T11:02:38.324Z,1.15
2018-12-10T11:05:08.374Z,1.67
2018-12-10T11:07:38.511Z,1.47
2018-12-10T11:10:08.617Z,1.22
2018-12-10T11:12:38.623Z,1.22
2018-12-10T11:15:08.560Z,2.22
2018-12-10T11:17:38.455Z,2.02
2018-12-10T11:20:09.521Z,1.98
2018-12-10T11:22:40.389Z,1.57
2018-12-10T11:25:10.648Z,1.30
2018-12-10T11:27:40.530Z,3.83
2018-12-10T11:30:11.044Z,2.60
2018-12-10T11:32:40.991Z,2.00
2018-12-10T11:35:11.107Z,1.02
2018-12-10T11:37:41.284Z,1.30
2018-12-10T11:40:11.251Z,1.70
2018-12-10T11:42:42.227Z,1.92
2018-12-10T11:45:12.387Z,1.12
2018-12-10T11:47:42.411Z,1.42
2018-12-10T11:50:12.557Z,1.00
2018-12-10T11:52:43.045Z,1.40
2018-12-10T11:55:13.086Z,2.47
2018-12-10T11:57:43.149Z,1.92
2018-12-10T12:00:13.404Z,1.87
2018-12-10T12:02:43.489Z,3.40
2018-12-10T12:05:13.599Z,4.03
2018-12-10T12:07:43.727Z,1.80
2018-12-10T12:10:14.029Z,3.02
2018-12-10T12:12:45.088Z,6.08
2018-12-10T12:15:15.078Z,3.52
2018-12-10T12:17:45.024Z,2.60
2018-12-10T12:20:14.971Z,5.05
2018-12-10T12:22:44.935Z,6.10
2018-12-10T12:25:14.940Z,4.03
2018-12-10T12:27:44.956Z,4.58
2018-12-10T12:30:14.975Z,1.00
2018-12-10T12:32:45.028Z,2.00
2018-12-10T12:35:15.128Z,2.25
2018-12-10T12:37:45.132Z,1.27
2018-12-10T12:40:15.172Z,2.25
2018-12-10T12:42:45.392Z,2.10
2018-12-10T12:45:15.485Z,1.67
2018-12-10T12:47:46.127Z,2.50
2018-12-10T12:50:16.206Z,1.60
2018-12-10T12:52:46.200Z,1.40
2018-12-10T12:55:16.151Z,1.60
2018-12-10T12:57:46.185Z,1.50
2018-12-10T13:00:16.196Z,1.17
2018-12-10T13:02:46.232Z,1.25
2018-12-10T13:05:16.526Z,1.67
2018-12-10T13:07:46.564Z,1.50
2018-12-10T13:10:16.969Z,1.72
2018-12-10T13:12:47.007Z,1.15
2018-12-10T13:15:17.904Z,1.40
2018-12-10T13:17:47.971Z,1.80
2018-12-10T13:20:17.906Z,2.37
2018-12-10T13:22:48.084Z,2.52
2018-12-10T13:25:18.219Z,1.92
2018-12-10T13:27:48.381Z,1.67
2018-12-10T13:30:18.606Z,1.60
2018-12-10T13:32:48.666Z,1.32
2018-12-10T13:35:18.672Z,1.65
2018-12-10T13:37:48.704Z,1.92
2018-12-10T13:40:18.576Z,1.40
2018-12-10T13:42:48.524Z,1.70
2018-12-10T13:45:18.577Z,1.80
2018-12-10T13:47:48.651Z,1.45
2018-12-10T13:50:18.669Z,1.47
2018-12-10T13:52:48.695Z,1.60
2018-12-10T13:55:18.813Z,1.00
2018-12-10T13:57:48.834Z,1.52
2018-12-10T14:00:18.774Z,1.45
2018-12-10T14:02:48.863Z,1.72
2018-12-10T14:05:19.579Z,1.65
2018-12-10T14:07:49.529Z,1.57
2018-12-10T14:10:19.492Z,1.55
2018-12-10T14:12:49.370Z,1.55
2018-12-10T14:15:19.676Z,2.33
2018-12-10T14:17:49.779Z,2.30
2018-12-10T14:20:19.780Z,1.95
2018-12-10T14:22:49.993Z,1.95
2018-12-10T14:25:24.857Z,1.75
2018-12-10T14:27:55.075Z,1.35
2018-12-10T14:30:25.135Z,1.30
2018-12-10T14:32:55.147Z,2.33
2018-12-10T14:35:25.154Z,3.20
2018-12-10T14:37:55.186Z,3.70
2018-12-10T14:40:25.243Z,11.28
2018-12-10T14:42:57.203Z,15.90
2018-12-10T14:45:27.197Z,6.90
2018-12-10T14:47:57.858Z,9.68
2018-12-10T14:50:27.864Z,8.25
2018-12-10T14:52:57.816Z,3.30
2018-12-10T14:55:27.820Z,3.87
2018-12-10T14:57:57.788Z,2.52
2018-12-10T15:00:27.798Z,2.92
2018-12-10T15:02:58.773Z,2.42
2018-12-10T15:05:28.797Z,2.67
2018-12-10T15:07:58.877Z,2.05
2018-12-10T15:10:28.879Z,1.32
2018-12-10T15:12:59.171Z,1.80
2018-12-10T15:15:29.209Z,2.00
2018-12-10T15:17:59.275Z,1.12
2018-12-10T15:20:29.272Z,1.10
2018-12-10T15:22:59.337Z,1.72
2018-12-10T15:25:29.423Z,1.15
2018-12-10T15:27:59.450Z,1.37
2018-12-10T15:30:29.296Z,1.50
2018-12-10T15:32:59.328Z,1.67
2018-12-10T15:35:29.204Z,1.82
2018-12-10T15:37:59.410Z,1.65
2018-12-10T15:40:29.420Z,1.90
2018-12-10T15:42:59.230Z,2.72
2018-12-10T15:45:29.248Z,2.10
2018-12-10T15:47:59.208Z,2.95
2018-12-10T15:50:29.187Z,2.52
2018-12-10T15:52:59.314Z,2.05
2018-12-10T15:55:29.307Z,2.00
2018-12-10T15:57:59.200Z,1.95
2018-12-10T16:00:29.145Z,1.20
2018-12-10T16:02:59.167Z,1.20
2018-12-10T16:05:29.284Z,1.60
2018-12-10T16:07:59.394Z,1.67
2018-12-10T16:10:29.391Z,2.20
2018-12-10T16:12:59.227Z,1.57
2018-12-10T16:15:29.211Z,1.80
2018-12-10T16:17:59.367Z,2.67
2018-12-10T16:20:29.401Z,2.10
2018-12-10T16:22:59.512Z,1.92
2018-12-10T16:25:29.384Z,2.75
2018-12-10T16:27:59.280Z,2.20
2018-12-10T16:30:29.599Z,1.90
2018-12-10T16:32:59.651Z,2.00
2018-12-10T16:35:30.148Z,1.72
2018-12-10T16:38:00.240Z,1.72
2018-12-10T16:40:30.228Z,1.70
2018-12-10T16:43:00.453Z,1.65
2018-12-10T16:45:30.606Z,1.98
2018-12-10T16:48:00.728Z,1.82
2018-12-10T16:50:30.799Z,1.82
2018-12-10T16:53:01.060Z,2.25
2018-12-10T16:55:31.029Z,4.00
2018-12-10T16:58:01.099Z,5.22
2018-12-10T17:00:31.184Z,3.10
2018-12-10T17:03:01.133Z,3.20
2018-12-10T17:05:31.225Z,2.20
2018-12-10T17:08:01.298Z,2.08
2018-12-10T17:10:31.272Z,2.35
2018-12-10T17:13:01.367Z,2.30
2018-12-10T17:15:31.396Z,1.77
2018-12-10T17:18:01.511Z,2.02
2018-12-10T17:20:31.610Z,1.60
2018-12-10T17:23:01.484Z,2.42
2018-12-10T17:25:31.495Z,1.90
2018-12-10T17:28:01.491Z,1.25
2018-12-10T17:30:31.570Z,1.10
2018-12-10T17:33:01.607Z,1.30
2018-12-10T17:35:31.699Z,1.70
2018-12-10T17:38:01.611Z,1.50
2018-12-10T17:40:31.728Z,1.60
2018-12-10T17:43:01.677Z,1.67
2018-12-10T17:45:31.612Z,1.60
2018-12-10T17:48:01.608Z,1.40
2018-12-10T17:50:31.632Z,1.30
2018-12-10T17:53:01.536Z,1.55
2018-12-10T17:55:31.674Z,1.42
2018-12-10T17:58:02.013Z,1.77
2018-12-10T18:00:32.095Z,2.08
2018-12-10T18:03:02.039Z,2.20
2018-12-10T18:05:32.424Z,2.00
2018-12-10T18:08:02.348Z,1.37
2018-12-10T18:10:32.350Z,1.50
2018-12-10T18:13:02.356Z,1.87
2018-12-10T18:15:32.380Z,1.32
2018-12-10T18:18:02.336Z,1.87
2018-12-10T18:20:32.777Z,2.35
2018-12-10T18:23:03.020Z,2.10
2018-12-10T18:25:33.067Z,3.00
2018-12-10T18:28:03.159Z,3.22
2018-12-10T18:30:33.713Z,2.90
2018-12-10T18:33:03.979Z,1.90
2018-12-10T18:35:33.945Z,1.47
2018-12-10T18:38:03.959Z,1.30
2018-12-10T18:40:33.987Z,1.50
2018-12-10T18:43:04.086Z,1.20
2018-12-10T18:45:34.104Z,1.57
2018-12-10T18:48:04.051Z,0.98
2018-12-10T18:50:34.052Z,1.32
2018-12-10T18:53:03.990Z,1.42
2018-12-10T18:55:33.947Z,2.08
2018-12-10T18:58:03.947Z,2.02
2018-12-10T19:00:33.928Z,2.25
2018-12-10T19:03:03.925Z,2.37
2018-12-10T19:05:33.956Z,1.65
2018-12-10T19:08:03.958Z,1.47
2018-12-10T19:10:35.231Z,1.62
2018-12-10T19:13:05.325Z,1.17
2018-12-10T19:15:35.526Z,1.55
2018-12-10T19:18:05.754Z,1.95
2018-12-10T19:20:35.768Z,1.52
2018-12-10T19:23:05.823Z,1.30
2018-12-10T19:25:35.733Z,1.57
2018-12-10T19:28:05.716Z,1.37
2018-12-10T19:30:35.662Z,1.20
2018-12-10T19:33:05.660Z,1.20
2018-12-10T19:35:35.673Z,1.30
2018-12-10T19:38:05.697Z,1.42
2018-12-10T19:40:36.630Z,0.95
2018-12-10T19:43:06.739Z,1.20
2018-12-10T19:45:36.764Z,1.22
2018-12-10T19:48:06.722Z,2.27
2018-12-10T19:50:36.648Z,1.50
2018-12-10T19:53:06.563Z,1.70
2018-12-10T19:55:36.615Z,1.80
2018-12-10T19:58:06.697Z,1.85
2018-12-10T20:00:37.089Z,1.50
2018-12-10T20:03:07.148Z,1.42
2018-12-10T20:05:42.504Z,1.70
2018-12-10T20:08:12.616Z,1.65
2018-12-10T20:10:42.623Z,1.62
2018-12-10T20:13:12.621Z,2.20
2018-12-10T20:15:42.601Z,1.20
2018-12-10T20:18:12.540Z,1.45
2018-12-10T20:20:42.522Z,1.60
2018-12-10T20:23:12.424Z,1.95
2018-12-10T20:25:42.335Z,1.95
2018-12-10T20:28:12.238Z,1.37
2018-12-10T20:30:42.130Z,2.02
2018-12-10T20:33:12.030Z,1.60
2018-12-10T20:35:41.957Z,2.20
2018-12-10T20:38:11.953Z,2.30
2018-12-10T20:40:41.884Z,2.70
2018-12-10T20:43:11.870Z,2.20
2018-12-10T20:45:41.809Z,2.00
2018-12-10T20:48:11.776Z,2.33
2018-12-10T20:50:41.759Z,2.33
2018-12-10T20:53:11.629Z,2.10
2018-12-10T20:55:41.492Z,1.82
2018-12-10T20:58:11.303Z,1.90
2018-12-10T21:00:41.364Z,2.00
2018-12-10T21:03:11.430Z,1.57
2018-12-10T21:05:46.644Z,1.80
2018-12-10T21:08:16.559Z,2.20
2018-12-10T21:10:46.439Z,2.08
2018-12-10T21:13:16.502Z,1.67
2018-12-10T21:15:46.491Z,1.72
2018-12-10T21:18:16.481Z,2.22
2018-12-10T21:20:46.431Z,1.50
2018-12-10T21:23:16.472Z,1.67
2018-12-10T21:25:46.530Z,1.90
2018-12-10T21:28:16.460Z,1.62
2018-12-10T21:30:46.387Z,2.05
2018-12-10T21:33:16.274Z,1.70
2018-12-10T21:35:46.677Z,1.40
2018-12-10T21:38:16.615Z,2.05
2018-12-10T21:40:46.563Z,1.82
2018-12-10T21:43:16.543Z,1.85
2018-12-10T21:45:46.500Z,1.40
2018-12-10T21:48:16.487Z,2.02
2018-12-10T21:50:46.386Z,2.00
2018-12-10T21:53:16.295Z,1.82
2018-12-10T21:55:46.241Z,1.75
2018-12-10T21:58:16.116Z,2.00
2018-12-10T22:00:46.150Z,3.17
2018-12-10T22:03:16.076Z,1.80
2018-12-10T22:05:46.091Z,1.70
2018-12-10T22:08:15.959Z,1.52
2018-12-10T22:10:46.007Z,1.60
2018-12-10T22:13:16.047Z,1.60
2018-12-10T22:15:45.992Z,1.65
2018-12-10T22:18:15.859Z,1.60
2018-12-10T22:20:45.860Z,1.45
2018-12-10T22:23:15.774Z,1.77
2018-12-10T22:25:45.890Z,1.60
2018-12-10T22:28:15.805Z,1.87
2018-12-10T22:30:45.886Z,1.70
2018-12-10T22:33:15.850Z,1.40
2018-12-10T22:35:46.012Z,1.10
2018-12-10T22:38:15.948Z,1.40
2018-12-10T22:40:46.140Z,1.75
2018-12-10T22:43:16.256Z,1.62
2018-12-10T22:45:46.257Z,1.65
2018-12-10T22:48:16.450Z,2.40
2018-12-10T22:50:46.511Z,1.67
2018-12-10T22:53:16.524Z,1.70
2018-12-10T22:55:46.396Z,1.95
2018-12-10T22:58:16.275Z,1.50
2018-12-10T23:00:51.008Z,1.90
2018-12-10T23:03:21.892Z,1.77
2018-12-10T23:05:51.789Z,1.75
2018-12-10T23:08:22.912Z,1.37
2018-12-10T23:10:53.646Z,1.52
2018-12-10T23:13:23.727Z,1.80
2018-12-10T23:15:53.892Z,1.60
2018-12-10T23:18:23.945Z,1.70
2018-12-10T23:20:53.815Z,1.60
2018-12-10T23:23:23.808Z,1.62
2018-12-10T23:25:53.645Z,1.57
2018-12-10T23:28:23.602Z,2.10
2018-12-10T23:30:53.480Z,2.27
2018-12-10T23:33:23.531Z,1.50
2018-12-10T23:35:53.516Z,2.17
2018-12-10T23:38:23.539Z,1.70
2018-12-10T23:40:53.419Z,1.90
2018-12-10T23:43:26.150Z,2.15
2018-12-10T23:45:56.070Z,1.95
2018-12-10T23:48:26.079Z,3.10
2018-12-10T23:50:56.071Z,2.42
2018-12-10T23:53:25.987Z,3.40
2018-12-10T23:55:55.932Z,2.60
2018-12-10T23:58:25.932Z,3.17
